CheckWX is a tool to help pilots better visualize weather data.  It is not intended as a substitute for an official pre-flight weather briefing.

07:38:48 UTC

KTFP METAR
McCampbell-Porter Airport
Ingleside, Texas, USA
Current

24 mins ago

KTFP 260715Z AUTO 15013G19KT 10SM SCT016 SCT022 SCT030 27/24 A2998 RMK AO2 T02680236 PNO
Observed
May-26 @ 07:15 UTC
Wind
  • 150° at 13 KTS
  • Gusting to 19 KTS
Visibility
10 SM
Flight Rules
VFR
Cloud Levels
  • Scattered at 1,600' AGL
  • Scattered at 2,200' AGL
  • Scattered at 3,000' AGL
Temperature
27°C / 81°F
Dewpoint
24°C / 75°F
Heat Index
31°C / 87°F
Humidity
84%
Altimeter
29.98" Hg
Pressure
1015.22 hPa
Previous

44 mins ago

KTFP 260655Z AUTO 15012KT 10SM SCT019 SCT025 SCT033 27/24 A2998 RMK AO2 T02690238 PNO
Observed
May-26 @ 06:55 UTC
Wind
  • 150° at 12 KTS
Visibility
10 SM
Flight Rules
VFR
Cloud Levels
  • Scattered at 1,900' AGL
  • Scattered at 2,500' AGL
  • Scattered at 3,300' AGL
Temperature
27°C / 81°F
Dewpoint
24°C / 75°F
Heat Index
31°C / 87°F
Humidity
84%
Altimeter
29.98" Hg
Pressure
1015.22 hPa
Previous

1 hour ago

KTFP 260635Z AUTO 15014G18KT 10SM SCT017 27/24 A2998 RMK AO2 T02680237 PNO
Observed
May-26 @ 06:35 UTC
Wind
  • 150° at 14 KTS
  • Gusting to 18 KTS
Visibility
10 SM
Flight Rules
VFR
Cloud Levels
  • Scattered at 1,700' AGL
Temperature
27°C / 81°F
Dewpoint
24°C / 75°F
Heat Index
31°C / 87°F
Humidity
84%
Altimeter
29.98" Hg
Pressure
1015.22 hPa